createdAt,value
2022-12-31T00:36:43.794Z,508.00
2022-12-31T00:37:43.768Z,507.00
2022-12-31T00:38:43.740Z,508.00
2022-12-31T00:39:43.715Z,505.00
2022-12-31T00:40:43.665Z,506.00
2022-12-31T00:41:43.650Z,506.00
2022-12-31T00:42:43.597Z,505.00
2022-12-31T00:43:43.588Z,510.00
2022-12-31T00:44:43.552Z,512.00
2022-12-31T00:45:43.522Z,506.00
2022-12-31T03:59:49.490Z,513.00
2022-12-31T04:00:49.522Z,508.00
2022-12-31T04:01:49.586Z,504.00
2022-12-31T04:02:49.517Z,507.00
2022-12-31T04:03:49.459Z,507.00
2022-12-31T04:04:49.448Z,512.00
2022-12-31T04:05:49.441Z,506.00
2022-12-31T04:06:49.437Z,507.00
2022-12-31T04:07:49.447Z,510.00
2022-12-31T04:08:49.453Z,509.00
2022-12-31T04:09:49.400Z,507.00
2022-12-31T04:10:49.372Z,510.00
2022-12-31T04:11:49.358Z,506.00
2022-12-31T04:12:49.363Z,504.00
2022-12-31T04:13:49.355Z,506.00
2022-12-31T04:14:49.343Z,510.00
2022-12-31T04:15:49.336Z,512.00
2022-12-31T04:16:49.324Z,504.00
2022-12-31T04:17:49.299Z,509.00
2022-12-31T04:18:49.303Z,509.00
2022-12-31T04:19:49.285Z,509.00
2022-12-31T04:20:49.285Z,509.00
2022-12-31T04:21:49.254Z,507.00
2022-12-31T04:22:49.240Z,511.00
2022-12-31T04:23:49.243Z,512.00
2022-12-31T04:24:49.216Z,508.00
2022-12-31T04:25:49.247Z,507.00
2022-12-31T04:26:49.185Z,509.00
2022-12-31T04:27:49.167Z,509.00
2022-12-31T04:28:49.200Z,505.00
2022-12-31T04:29:49.160Z,508.00
2022-12-31T04:30:49.147Z,511.00
2022-12-31T04:31:49.161Z,510.00
2022-12-31T04:32:49.126Z,506.00
2022-12-31T04:33:49.120Z,506.00
2022-12-31T04:34:49.118Z,506.00
2022-12-31T04:35:49.102Z,501.00
2022-12-31T04:36:49.095Z,505.00
2022-12-31T04:37:49.090Z,505.00
2022-12-31T04:38:49.095Z,510.00
2022-12-31T04:39:49.081Z,503.00
2022-12-31T04:40:49.083Z,507.00
2022-12-31T04:41:49.076Z,510.00
2022-12-31T04:42:49.104Z,507.00
2022-12-31T04:43:49.075Z,506.00
2022-12-31T04:44:49.076Z,505.00
2022-12-31T04:45:49.089Z,506.00
2022-12-31T04:46:49.055Z,503.00
2022-12-31T04:47:49.073Z,508.00
2022-12-31T04:48:49.066Z,505.00
2022-12-31T04:49:49.076Z,506.00
2022-12-31T04:50:49.064Z,505.00
2022-12-31T04:51:49.089Z,508.00
2022-12-31T04:52:49.056Z,512.00
2022-12-31T04:53:49.032Z,508.00
2022-12-31T04:54:49.062Z,505.00
2022-12-31T04:55:49.039Z,508.00
2022-12-31T04:56:49.026Z,505.00
2022-12-31T04:57:49.026Z,505.00
2022-12-31T04:58:49.033Z,510.00
2022-12-31T04:59:49.023Z,508.00
2022-12-31T05:00:49.021Z,505.00
2022-12-31T05:01:49.155Z,501.00
2022-12-31T05:02:49.152Z,507.00
2022-12-31T05:03:49.017Z,508.00
2022-12-31T05:04:48.992Z,501.00
2022-12-31T05:05:48.970Z,508.00
2022-12-31T05:06:48.969Z,508.00
2022-12-31T05:07:48.949Z,507.00
2022-12-31T05:08:48.954Z,502.00
2022-12-31T05:09:48.957Z,505.00
2022-12-31T05:10:48.922Z,504.00
2022-12-31T05:11:48.925Z,504.00
2022-12-31T05:12:48.912Z,505.00
2022-12-31T05:13:48.912Z,504.00
2022-12-31T05:14:48.909Z,508.00
2022-12-31T05:15:48.888Z,507.00
2022-12-31T05:16:48.937Z,509.00
2022-12-31T05:17:48.858Z,504.00
2022-12-31T05:18:48.870Z,504.00
2022-12-31T05:19:48.842Z,512.00
2022-12-31T05:20:48.844Z,506.00
2022-12-31T05:21:48.848Z,505.00
2022-12-31T05:22:48.817Z,513.00
2022-12-31T05:23:48.805Z,507.00
2022-12-31T05:24:48.817Z,501.00
2022-12-31T05:25:48.776Z,502.00
2022-12-31T05:26:48.780Z,505.00
2022-12-31T05:27:48.763Z,508.00
2022-12-31T05:28:48.767Z,508.00
2022-12-31T05:29:48.780Z,504.00
2022-12-31T05:30:48.766Z,512.00
2022-12-31T05:31:48.718Z,512.00
2022-12-31T05:32:48.725Z,508.00
2022-12-31T05:33:49.308Z,511.00
2022-12-31T05:34:48.706Z,509.00
2022-12-31T05:35:48.722Z,507.00
2022-12-31T05:36:48.677Z,507.00
2022-12-31T05:37:48.658Z,506.00
2022-12-31T05:38:48.649Z,510.00
2022-12-31T05:39:48.631Z,505.00
2022-12-31T05:40:48.659Z,502.00
2022-12-31T05:41:48.621Z,506.00
2022-12-31T05:42:48.583Z,504.00
2022-12-31T05:43:48.617Z,508.00
2022-12-31T05:44:48.582Z,500.00
2022-12-31T05:45:48.627Z,507.00
2022-12-31T05:46:48.554Z,503.00
2022-12-31T05:47:48.545Z,510.00
2022-12-31T05:48:48.553Z,507.00
2022-12-31T05:49:48.566Z,506.00
2022-12-31T05:50:48.563Z,506.00
2022-12-31T05:51:48.515Z,512.00
2022-12-31T05:52:48.515Z,505.00
2022-12-31T05:53:48.510Z,507.00
2022-12-31T05:54:48.489Z,505.00
2022-12-31T05:55:48.482Z,501.00
2022-12-31T05:56:48.466Z,500.00
2022-12-31T05:57:48.474Z,504.00
2022-12-31T05:58:48.451Z,504.00
2022-12-31T05:59:48.457Z,508.00
2022-12-31T06:00:48.461Z,502.00
2022-12-31T06:01:48.426Z,505.00
2022-12-31T06:02:48.470Z,512.00
2022-12-31T06:03:48.442Z,510.00
2022-12-31T06:04:48.400Z,506.00
2022-12-31T06:05:48.417Z,510.00
2022-12-31T06:06:48.373Z,502.00
2022-12-31T06:07:48.371Z,502.00
2022-12-31T06:08:48.365Z,507.00
2022-12-31T06:09:48.337Z,503.00
2022-12-31T06:10:48.320Z,504.00
2022-12-31T06:11:48.322Z,508.00
2022-12-31T06:12:48.304Z,510.00
2022-12-31T06:13:48.319Z,505.00
2022-12-31T06:14:48.298Z,503.00
2022-12-31T06:15:48.319Z,500.00
2022-12-31T06:16:48.815Z,500.00
2022-12-31T06:17:48.310Z,506.00
2022-12-31T06:18:48.266Z,503.00
2022-12-31T06:19:48.278Z,502.00
2022-12-31T06:20:48.262Z,504.00
2022-12-31T06:21:48.249Z,511.00
2022-12-31T06:22:48.241Z,511.00
2022-12-31T06:23:48.239Z,505.00
2022-12-31T06:24:48.224Z,507.00
2022-12-31T06:25:48.240Z,506.00
2022-12-31T06:26:48.314Z,508.00
2022-12-31T06:27:48.179Z,505.00
2022-12-31T06:28:48.168Z,506.00
2022-12-31T06:29:48.184Z,505.00
2022-12-31T06:30:48.185Z,505.00
2022-12-31T06:31:48.154Z,509.00
2022-12-31T06:32:48.144Z,509.00
2022-12-31T06:33:48.127Z,506.00
2022-12-31T06:34:48.117Z,506.00
2022-12-31T06:35:48.123Z,507.00
2022-12-31T06:36:48.117Z,505.00
2022-12-31T06:37:48.116Z,509.00
2022-12-31T06:38:48.123Z,509.00
2022-12-31T06:39:48.087Z,510.00
2022-12-31T06:40:48.085Z,507.00
2022-12-31T06:41:48.077Z,508.00
2022-12-31T06:42:48.049Z,507.00
2022-12-31T06:43:48.048Z,505.00
2022-12-31T06:44:48.037Z,503.00
2022-12-31T06:45:48.035Z,503.00
2022-12-31T06:46:48.066Z,506.00
2022-12-31T06:47:48.030Z,503.00
2022-12-31T06:48:48.008Z,507.00
2022-12-31T06:49:48.008Z,507.00
2022-12-31T06:50:47.995Z,505.00
2022-12-31T06:51:48.029Z,509.00
2022-12-31T06:52:47.996Z,511.00
2022-12-31T06:53:48.011Z,505.00
2022-12-31T06:54:47.978Z,501.00
2022-12-31T06:55:47.988Z,501.00
2022-12-31T06:56:47.990Z,511.00
2022-12-31T06:57:47.979Z,505.00
2022-12-31T06:58:47.991Z,505.00
2022-12-31T06:59:47.984Z,508.00
2022-12-31T07:00:47.986Z,502.00
2022-12-31T07:01:48.078Z,502.00
2022-12-31T07:02:48.143Z,506.00
2022-12-31T07:03:47.973Z,506.00
2022-12-31T07:04:47.979Z,503.00
2022-12-31T07:05:47.981Z,508.00
2022-12-31T07:06:47.982Z,506.00
2022-12-31T07:07:48.006Z,514.00
2022-12-31T07:08:47.995Z,504.00
2022-12-31T07:09:48.009Z,511.00
2022-12-31T07:10:48.017Z,508.00
2022-12-31T07:11:48.014Z,512.00
2022-12-31T07:12:48.019Z,511.00
2022-12-31T07:13:48.050Z,509.00
2022-12-31T07:14:48.010Z,505.00
2022-12-31T07:15:48.035Z,508.00
2022-12-31T07:16:48.020Z,506.00
2022-12-31T07:17:48.025Z,501.00
2022-12-31T07:18:47.994Z,507.00
2022-12-31T07:19:52.413Z,506.00
2022-12-31T07:20:49.014Z,506.00
2022-12-31T07:21:48.003Z,506.00
2022-12-31T07:22:47.999Z,508.00
2022-12-31T07:23:47.988Z,508.00
2022-12-31T07:24:47.965Z,504.00
2022-12-31T07:25:47.970Z,509.00
2022-12-31T07:26:54.238Z,511.00
2022-12-31T07:28:47.954Z,511.00
2022-12-31T07:29:47.940Z,504.00
2022-12-31T07:30:47.936Z,510.00
2022-12-31T07:31:47.950Z,502.00
2022-12-31T07:32:47.917Z,510.00
2022-12-31T07:33:47.928Z,504.00
2022-12-31T07:34:47.916Z,507.00
2022-12-31T07:35:47.904Z,506.00
2022-12-31T07:36:47.900Z,502.00
2022-12-31T07:37:47.887Z,504.00
2022-12-31T07:38:47.884Z,503.00
2022-12-31T07:39:47.876Z,505.00
2022-12-31T07:40:47.864Z,507.00
2022-12-31T07:41:47.936Z,507.00
2022-12-31T07:42:47.876Z,507.00
2022-12-31T07:43:47.864Z,509.00
2022-12-31T07:44:47.850Z,500.00
2022-12-31T07:45:47.864Z,504.00
2022-12-31T07:46:47.901Z,511.00
2022-12-31T07:47:47.841Z,512.00
2022-12-31T07:48:47.840Z,502.00
2022-12-31T08:01:48.478Z,506.00
2022-12-31T12:34:50.170Z,505.00
2022-12-31T12:35:47.887Z,507.00
2022-12-31T12:36:47.939Z,509.00
2022-12-31T12:37:47.986Z,511.00
2022-12-31T12:38:48.049Z,506.00
2022-12-31T12:39:48.083Z,508.00
2022-12-31T12:40:48.134Z,510.00
2022-12-31T12:41:48.198Z,511.00
2022-12-31T12:42:48.274Z,504.00
2022-12-31T12:43:48.279Z,509.00
2022-12-31T12:44:48.343Z,513.00
2022-12-31T12:45:52.229Z,513.00
2022-12-31T12:46:48.765Z,512.00
2022-12-31T12:47:48.360Z,506.00
2022-12-31T12:48:48.352Z,509.00
2022-12-31T12:49:48.349Z,511.00
2022-12-31T12:50:48.321Z,503.00
2022-12-31T12:51:48.321Z,508.00
2022-12-31T12:52:48.334Z,507.00
2022-12-31T12:53:48.298Z,505.00
2022-12-31T12:54:48.295Z,508.00
2022-12-31T12:55:48.264Z,509.00
2022-12-31T12:56:48.327Z,503.00
2022-12-31T12:57:48.266Z,500.00
2022-12-31T12:58:48.278Z,503.00
2022-12-31T12:59:48.232Z,504.00
2022-12-31T13:00:48.405Z,503.00
2022-12-31T13:01:48.365Z,505.00
2022-12-31T13:02:48.318Z,501.00
2022-12-31T13:04:07.713Z,510.00
2022-12-31T13:04:49.190Z,510.00
2022-12-31T13:05:48.162Z,510.00
2022-12-31T13:06:48.162Z,509.00
2022-12-31T13:07:48.169Z,510.00
2022-12-31T13:08:48.160Z,504.00
2022-12-31T13:09:48.134Z,508.00
2022-12-31T13:10:48.122Z,507.00
2022-12-31T13:11:48.107Z,506.00
2022-12-31T13:13:49.078Z,505.00
2022-12-31T13:14:48.075Z,505.00
2022-12-31T13:15:48.050Z,507.00
2022-12-31T13:16:48.169Z,506.00
2022-12-31T13:17:53.296Z,504.00
2022-12-31T13:18:49.022Z,505.00
2022-12-31T13:19:47.999Z,506.00
2022-12-31T13:20:48.001Z,506.00
2022-12-31T13:21:47.991Z,506.00
2022-12-31T13:22:48.021Z,505.00
2022-12-31T13:23:47.960Z,508.00
2022-12-31T13:24:47.959Z,505.00
2022-12-31T13:25:47.978Z,510.00
2022-12-31T13:26:47.937Z,505.00
2022-12-31T13:27:47.922Z,504.00
2022-12-31T13:28:47.910Z,505.00
2022-12-31T13:29:47.896Z,505.00
2022-12-31T13:30:47.923Z,506.00
2022-12-31T13:31:47.924Z,504.00
2022-12-31T13:32:47.943Z,504.00
2022-12-31T13:33:47.866Z,509.00
2022-12-31T13:34:47.923Z,506.00
2022-12-31T13:35:47.848Z,502.00
2022-12-31T13:38:47.827Z,502.00
2022-12-31T16:27:47.838Z,506.00
2022-12-31T16:28:47.885Z,508.00
2022-12-31T16:29:54.003Z,510.00
2022-12-31T16:30:49.003Z,510.00
2022-12-31T16:31:47.958Z,508.00
2022-12-31T16:32:47.912Z,509.00
2022-12-31T16:33:47.912Z,510.00
2022-12-31T16:34:47.906Z,512.00
2022-12-31T16:35:47.908Z,506.00
2022-12-31T16:36:47.896Z,512.00
2022-12-31T16:37:47.884Z,505.00
2022-12-31T16:38:47.888Z,500.00
2022-12-31T16:39:47.881Z,506.00
2022-12-31T16:40:47.884Z,505.00
2022-12-31T16:41:47.891Z,507.00
2022-12-31T16:42:47.861Z,504.00
2022-12-31T16:43:47.865Z,507.00
2022-12-31T16:44:47.871Z,504.00
2022-12-31T16:45:47.870Z,506.00
2022-12-31T17:27:48.035Z,504.00
2022-12-31T17:57:47.314Z,506.00
2022-12-31T17:58:47.283Z,508.00
2022-12-31T17:59:47.275Z,507.00
2022-12-31T18:00:47.311Z,510.00
2022-12-31T18:01:47.370Z,505.00
2022-12-31T18:02:47.341Z,500.00
2022-12-31T18:03:47.249Z,503.00
2022-12-31T18:04:47.261Z,511.00
2022-12-31T18:05:47.252Z,509.00
2022-12-31T18:06:47.237Z,512.00
2022-12-31T18:07:47.248Z,515.00
2022-12-31T18:08:47.252Z,510.00
2022-12-31T18:09:47.268Z,509.00
2022-12-31T18:10:47.243Z,510.00
2022-12-31T18:11:47.240Z,507.00
2022-12-31T18:12:47.232Z,510.00
2022-12-31T18:13:47.241Z,507.00
2022-12-31T18:14:47.220Z,509.00
2022-12-31T18:15:47.221Z,506.00
2022-12-31T18:16:47.233Z,505.00
2022-12-31T18:17:47.218Z,504.00
2022-12-31T18:18:47.250Z,507.00
2022-12-31T18:20:10.891Z,502.00
2022-12-31T18:20:48.198Z,502.00
2022-12-31T18:21:47.202Z,502.00
2022-12-31T18:22:47.204Z,503.00
2022-12-31T18:23:47.193Z,503.00
2022-12-31T18:24:47.172Z,507.00
2022-12-31T18:25:47.190Z,501.00
2022-12-31T18:26:47.163Z,509.00
2022-12-31T18:27:47.193Z,506.00
2022-12-31T18:28:47.149Z,504.00
2022-12-31T18:29:47.134Z,509.00
2022-12-31T18:30:47.164Z,504.00
2022-12-31T18:31:47.209Z,505.00
2022-12-31T18:32:47.121Z,505.00
2022-12-31T18:33:47.112Z,508.00
2022-12-31T18:34:47.097Z,506.00
2022-12-31T18:36:08.150Z,509.00
2022-12-31T18:36:48.073Z,509.00
2022-12-31T18:37:47.089Z,510.00
2022-12-31T18:38:47.032Z,510.00
2022-12-31T18:39:47.038Z,512.00
2022-12-31T18:40:47.040Z,506.00
2022-12-31T18:41:47.034Z,507.00
2022-12-31T18:42:47.039Z,515.00
2022-12-31T18:43:47.036Z,506.00
2022-12-31T18:44:47.037Z,503.00
2022-12-31T18:45:47.032Z,510.00
2022-12-31T18:46:47.014Z,511.00
2022-12-31T18:47:47.016Z,515.00
2022-12-31T18:48:47.007Z,509.00
2022-12-31T18:49:46.994Z,513.00
2022-12-31T18:50:47.072Z,511.00
2022-12-31T18:51:46.987Z,504.00
2022-12-31T18:52:46.994Z,506.00
2022-12-31T18:53:46.986Z,512.00
2022-12-31T18:54:46.967Z,512.00
2022-12-31T18:55:46.968Z,505.00
2022-12-31T18:56:49.346Z,505.00
2022-12-31T18:57:47.939Z,505.00
2022-12-31T18:58:46.947Z,506.00
2022-12-31T18:59:46.928Z,506.00
2022-12-31T19:00:46.964Z,509.00
2022-12-31T19:01:46.940Z,506.00
2022-12-31T19:02:46.906Z,516.00
2022-12-31T19:03:46.913Z,512.00
2022-12-31T19:04:46.876Z,510.00
2022-12-31T19:05:46.855Z,514.00
2022-12-31T19:06:46.861Z,514.00
2022-12-31T19:07:46.832Z,512.00
2022-12-31T19:08:46.844Z,515.00
2022-12-31T19:09:49.127Z,515.00
2022-12-31T19:10:46.820Z,516.00
2022-12-31T19:11:46.788Z,513.00
2022-12-31T19:12:46.795Z,511.00
2022-12-31T19:13:46.790Z,513.00
2022-12-31T19:14:46.771Z,514.00
2022-12-31T19:15:46.746Z,517.00
2022-12-31T19:16:46.803Z,511.00
2022-12-31T19:17:46.722Z,507.00
2022-12-31T19:18:46.729Z,506.00
2022-12-31T19:19:46.739Z,507.00
2022-12-31T19:20:46.711Z,507.00
2022-12-31T19:21:46.709Z,510.00
2022-12-31T19:22:46.700Z,504.00
2022-12-31T19:23:46.701Z,508.00
2022-12-31T19:24:46.698Z,508.00
2022-12-31T19:25:46.697Z,504.00
2022-12-31T19:26:46.709Z,512.00
2022-12-31T19:27:46.683Z,511.00
2022-12-31T19:28:46.704Z,504.00
2022-12-31T19:29:46.675Z,505.00
2022-12-31T19:30:46.700Z,506.00
2022-12-31T19:31:46.666Z,507.00
2022-12-31T19:32:46.651Z,503.00
2022-12-31T19:33:46.683Z,503.00
2022-12-31T19:34:46.649Z,506.00
2022-12-31T19:35:46.639Z,504.00
2022-12-31T19:36:46.649Z,505.00
2022-12-31T19:37:46.626Z,506.00
2022-12-31T19:38:46.654Z,503.00
2022-12-31T19:39:46.628Z,503.00
2022-12-31T19:40:46.629Z,507.00
2022-12-31T19:41:48.232Z,512.00
2022-12-31T19:42:46.676Z,512.00
2022-12-31T19:43:46.637Z,502.00
2022-12-31T19:44:47.084Z,510.00
2022-12-31T19:46:46.569Z,506.00
2022-12-31T19:47:46.567Z,501.00
2022-12-31T19:48:46.597Z,505.00
2022-12-31T19:49:46.590Z,512.00
2022-12-31T19:50:46.550Z,502.00
2022-12-31T19:51:46.526Z,506.00
2022-12-31T19:52:46.512Z,500.00
2022-12-31T19:53:46.525Z,508.00
2022-12-31T19:54:46.511Z,511.00
2022-12-31T19:55:46.559Z,512.00
2022-12-31T19:56:46.497Z,513.00
2022-12-31T19:57:46.484Z,512.00
2022-12-31T19:58:46.483Z,517.00
2022-12-31T19:59:46.475Z,515.00
2022-12-31T20:00:51.688Z,514.00
2022-12-31T20:02:46.638Z,513.00
2022-12-31T20:03:46.464Z,514.00
2022-12-31T20:04:46.456Z,507.00
2022-12-31T20:05:46.495Z,512.00
2022-12-31T20:06:46.448Z,513.00
2022-12-31T20:07:46.471Z,509.00
2022-12-31T20:08:46.461Z,512.00
2022-12-31T20:09:46.436Z,513.00
2022-12-31T20:10:46.421Z,504.00
2022-12-31T20:11:46.420Z,511.00
2022-12-31T20:12:46.430Z,508.00
2022-12-31T20:13:46.427Z,504.00
2022-12-31T20:14:46.416Z,505.00
2022-12-31T20:15:46.376Z,508.00
2022-12-31T20:16:46.439Z,508.00
2022-12-31T20:17:46.364Z,509.00
2022-12-31T20:18:46.401Z,508.00
2022-12-31T20:19:46.360Z,508.00
2022-12-31T20:20:49.245Z,509.00
2022-12-31T20:21:47.341Z,508.00
2022-12-31T20:22:46.327Z,509.00
2022-12-31T20:23:46.361Z,509.00
2022-12-31T20:24:46.379Z,509.00
2022-12-31T20:25:46.348Z,508.00
2022-12-31T20:26:46.335Z,513.00
2022-12-31T20:27:47.100Z,505.00
2022-12-31T20:28:46.438Z,509.00
2022-12-31T20:29:46.339Z,511.00
2022-12-31T20:30:46.346Z,515.00
2022-12-31T20:31:46.350Z,509.00
2022-12-31T20:32:46.324Z,510.00
2022-12-31T20:33:47.096Z,514.00
2022-12-31T20:34:46.369Z,511.00
2022-12-31T20:35:46.315Z,512.00
2022-12-31T20:36:46.284Z,515.00
2022-12-31T20:37:46.279Z,511.00
2022-12-31T20:38:46.279Z,516.00
2022-12-31T20:39:46.287Z,514.00
2022-12-31T20:40:47.121Z,510.00
2022-12-31T20:41:46.280Z,507.00
2022-12-31T20:42:46.302Z,511.00
2022-12-31T20:43:46.274Z,509.00
2022-12-31T20:44:46.296Z,508.00
2022-12-31T20:45:46.343Z,511.00
2022-12-31T20:46:46.315Z,507.00
2022-12-31T20:47:46.241Z,506.00
2022-12-31T20:48:46.243Z,509.00
2022-12-31T20:50:10.208Z,505.00
2022-12-31T20:50:47.274Z,506.00
2022-12-31T20:51:51.835Z,508.00
2022-12-31T20:52:47.227Z,506.00
2022-12-31T20:53:46.202Z,507.00
2022-12-31T20:54:46.183Z,508.00
2022-12-31T20:55:46.646Z,513.00
2022-12-31T20:56:46.217Z,524.00
2022-12-31T20:57:46.140Z,519.00
2022-12-31T20:58:46.141Z,512.00
2022-12-31T20:59:46.115Z,519.00
2022-12-31T21:00:46.123Z,518.00
2022-12-31T21:02:20.171Z,524.00
2022-12-31T21:02:56.377Z,524.00
2022-12-31T21:04:47.249Z,525.00
2022-12-31T21:05:46.209Z,526.00
2022-12-31T21:06:46.018Z,528.00
2022-12-31T21:07:46.024Z,530.00
2022-12-31T21:08:46.017Z,534.00
2022-12-31T21:09:45.993Z,532.00
2022-12-31T21:10:45.987Z,534.00
2022-12-31T21:11:45.976Z,528.00
2022-12-31T21:12:45.959Z,534.00
2022-12-31T21:13:45.961Z,538.00
2022-12-31T21:14:45.969Z,540.00
2022-12-31T21:15:45.971Z,540.00
2022-12-31T21:16:45.942Z,543.00
2022-12-31T21:17:45.920Z,539.00
2022-12-31T21:18:45.940Z,544.00
2022-12-31T21:19:45.905Z,552.00
2022-12-31T21:20:45.926Z,549.00
2022-12-31T21:21:45.892Z,550.00
2022-12-31T21:22:45.891Z,554.00
2022-12-31T21:23:45.861Z,555.00
2022-12-31T21:24:45.858Z,556.00
2022-12-31T21:25:45.864Z,555.00
2022-12-31T21:26:45.835Z,560.00
2022-12-31T21:27:45.827Z,558.00
2022-12-31T21:28:45.820Z,562.00
2022-12-31T21:30:16.915Z,565.00
2022-12-31T21:30:46.887Z,565.00
2022-12-31T21:31:45.822Z,567.00
2022-12-31T21:32:45.801Z,572.00
2022-12-31T21:33:46.664Z,573.00
2022-12-31T21:35:00.171Z,587.00
2022-12-31T21:36:45.828Z,570.00
2022-12-31T21:37:58.864Z,576.00
2022-12-31T21:39:45.743Z,570.00
2022-12-31T21:40:45.756Z,578.00
2022-12-31T21:41:45.766Z,594.00
2022-12-31T21:42:45.711Z,608.00
2022-12-31T21:43:45.735Z,613.00
2022-12-31T21:44:45.722Z,609.00
2022-12-31T21:45:45.692Z,614.00
2022-12-31T21:47:15.762Z,611.00
2022-12-31T21:47:47.584Z,612.00
2022-12-31T21:48:45.656Z,612.00
2022-12-31T21:49:45.708Z,612.00
2022-12-31T21:50:45.652Z,612.00
2022-12-31T21:51:45.719Z,617.00
2022-12-31T21:52:45.629Z,623.00
2022-12-31T21:53:45.610Z,619.00
2022-12-31T21:54:45.589Z,617.00
2022-12-31T21:55:45.597Z,624.00
2022-12-31T21:56:45.584Z,626.00
2022-12-31T21:58:45.600Z,620.00
2022-12-31T21:59:46.651Z,622.00
2022-12-31T22:00:45.595Z,629.00
2022-12-31T22:01:45.698Z,630.00
2022-12-31T22:02:59.141Z,627.00
2022-12-31T22:05:02.554Z,628.00
2022-12-31T22:06:45.615Z,629.00
2022-12-31T22:07:45.576Z,630.00
2022-12-31T22:08:45.550Z,631.00
2022-12-31T22:09:45.547Z,627.00
2022-12-31T22:11:45.523Z,635.00
2022-12-31T22:13:45.506Z,653.00
2022-12-31T22:16:45.470Z,662.00
2022-12-31T22:18:45.471Z,669.00
2022-12-31T22:20:45.461Z,693.00
2022-12-31T22:23:45.402Z,715.00
2022-12-31T22:24:45.422Z,723.00
2022-12-31T22:28:45.397Z,794.00
2022-12-31T22:38:45.305Z,923.00
2022-12-31T22:47:45.277Z,1079.00
2022-12-31T22:52:45.231Z,1167.00
2022-12-31T22:54:45.240Z,1205.00
2022-12-31T22:56:45.208Z,1246.00
2022-12-31T22:57:45.235Z,1244.00
2022-12-31T23:05:45.183Z,1346.00
2022-12-31T23:09:45.146Z,1428.00
2022-12-31T23:10:45.133Z,1413.00
2022-12-31T23:11:45.130Z,1403.00
2022-12-31T23:12:45.137Z,1401.00
2022-12-31T23:14:45.137Z,1465.00
2022-12-31T23:15:45.366Z,1480.00
2022-12-31T23:16:45.103Z,1436.00
2022-12-31T23:18:45.106Z,1460.00
2022-12-31T23:19:45.138Z,1486.00
2022-12-31T23:20:45.108Z,1464.00
2022-12-31T23:21:45.088Z,1482.00
2022-12-31T23:22:45.076Z,1493.00
2022-12-31T23:23:45.115Z,1510.00
2022-12-31T23:24:45.102Z,1539.00
2022-12-31T23:26:45.063Z,1558.00
2022-12-31T23:27:45.061Z,1572.00
2022-12-31T23:28:45.050Z,1575.00
2022-12-31T23:29:47.522Z,1573.00
2022-12-31T23:30:45.050Z,1566.00
2022-12-31T23:31:45.063Z,1576.00
2022-12-31T23:32:45.092Z,1624.00
2022-12-31T23:33:45.023Z,1649.00
2022-12-31T23:34:45.023Z,1637.00
2022-12-31T23:35:45.001Z,1674.00
2022-12-31T23:36:44.992Z,1679.00
2022-12-31T23:37:45.033Z,1703.00
2022-12-31T23:38:45.000Z,1725.00
2022-12-31T23:39:44.993Z,1739.00
2022-12-31T23:40:44.987Z,1744.00
2022-12-31T23:41:44.985Z,1748.00
2022-12-31T23:42:44.965Z,1755.00
2022-12-31T23:43:45.005Z,1742.00
2022-12-31T23:44:45.009Z,1759.00
2022-12-31T23:45:45.009Z,1754.00
2022-12-31T23:46:44.972Z,1802.00
2022-12-31T23:47:44.950Z,1816.00
2022-12-31T23:48:44.938Z,1759.00
2022-12-31T23:49:44.959Z,1813.00
2022-12-31T23:50:50.861Z,1795.00
2022-12-31T23:51:45.921Z,1793.00
2022-12-31T23:52:44.906Z,1792.00
2022-12-31T23:53:44.906Z,1785.00
2022-12-31T23:54:44.885Z,1825.00
2022-12-31T23:55:44.869Z,1847.00
2022-12-31T23:56:44.882Z,1843.00
2022-12-31T23:57:44.875Z,1837.00
2022-12-31T23:58:44.864Z,1893.00
2022-12-31T23:59:44.919Z,1894.00
